createdAt,value
2022-10-22T00:00:18.141Z,1.33
2022-10-22T00:02:48.388Z,2.43
2022-10-22T00:05:16.145Z,2.70
2022-10-22T00:07:43.777Z,1.10
2022-10-22T00:10:11.527Z,2.10
2022-10-22T00:12:38.922Z,1.70
2022-10-22T00:15:07.160Z,1.17
2022-10-22T00:17:34.463Z,4.30
2022-10-22T00:20:01.667Z,1.40
2022-10-22T00:22:29.040Z,1.40
2022-10-22T00:24:56.347Z,1.37
2022-10-22T00:27:23.638Z,1.17
2022-10-22T00:29:50.965Z,0.80
2022-10-22T00:32:18.253Z,0.70
2022-10-22T00:34:45.509Z,0.70
2022-10-22T00:37:12.719Z,1.07
2022-10-22T00:39:39.998Z,1.10
2022-10-22T00:42:07.445Z,3.40
2022-10-22T00:44:53.514Z,11.30
2022-10-22T00:47:21.064Z,1.33
2022-10-22T00:49:48.884Z,2.33
2022-10-22T00:52:16.235Z,6.20
2022-10-22T00:54:43.498Z,5.40
2022-10-22T00:57:10.892Z,2.93
2022-10-22T00:59:39.612Z,0.70
2022-10-22T01:02:06.887Z,0.70
2022-10-22T01:04:34.260Z,0.50
2022-10-22T01:07:01.766Z,0.70
2022-10-22T01:09:28.998Z,1.80
2022-10-22T01:12:19.431Z,0.90
2022-10-22T01:14:49.821Z,0.70
2022-10-22T01:17:23.354Z,0.70
2022-10-22T01:19:51.194Z,0.50
2022-10-22T01:22:26.443Z,0.57
2022-10-22T01:24:57.123Z,0.60
2022-10-22T01:27:32.751Z,0.53
2022-10-22T01:30:05.542Z,0.60
2022-10-22T01:32:35.533Z,0.70
2022-10-22T01:35:05.228Z,0.60
2022-10-22T01:37:34.676Z,0.70
2022-10-22T01:40:02.906Z,0.50
2022-10-22T01:42:30.162Z,0.63
2022-10-22T01:44:57.570Z,0.70
2022-10-22T01:47:37.181Z,0.60
2022-10-22T01:50:07.645Z,0.83
2022-10-22T01:52:48.513Z,0.97
2022-10-22T01:55:45.265Z,0.80
2022-10-22T01:58:18.385Z,0.70
2022-10-22T02:00:48.723Z,0.50
2022-10-22T02:03:22.875Z,0.70
2022-10-22T02:05:54.906Z,0.60
2022-10-22T02:08:24.554Z,0.60
2022-10-22T02:10:52.346Z,1.50
2022-10-22T02:13:23.739Z,1.53
2022-10-22T02:15:52.557Z,1.50
2022-10-22T02:18:21.541Z,1.50
2022-10-22T02:20:49.534Z,1.40
2022-10-22T02:23:17.010Z,1.20
2022-10-22T02:25:46.816Z,1.70
2022-10-22T02:28:16.945Z,1.52
2022-10-22T02:30:47.510Z,1.63
2022-10-22T02:33:20.738Z,1.20
2022-10-22T02:35:49.238Z,0.57
2022-10-22T02:38:17.265Z,0.73
2022-10-22T02:40:44.740Z,0.90
2022-10-22T02:43:12.119Z,0.80
2022-10-22T02:45:39.498Z,0.60
2022-10-22T02:48:09.828Z,0.60
2022-10-22T02:50:37.170Z,0.60
2022-10-22T02:53:04.948Z,0.60
2022-10-22T02:55:32.130Z,0.70
2022-10-22T02:57:59.445Z,0.70
2022-10-22T03:00:26.709Z,0.70
2022-10-22T03:02:53.932Z,0.80
2022-10-22T03:05:21.491Z,0.73
2022-10-22T03:07:48.758Z,0.80
2022-10-22T03:10:16.021Z,0.70
2022-10-22T03:12:43.309Z,0.70
2022-10-22T03:15:10.893Z,0.70
2022-10-22T03:17:38.340Z,0.87
2022-10-22T03:20:06.056Z,1.20
2022-10-22T03:22:33.902Z,0.80
2022-10-22T03:25:03.878Z,1.00
2022-10-22T03:27:31.142Z,0.90
2022-10-22T03:29:58.893Z,0.77
2022-10-22T03:32:26.107Z,0.80
2022-10-22T03:34:53.414Z,0.97
2022-10-22T03:37:20.899Z,1.00
2022-10-22T03:39:48.334Z,0.90
2022-10-22T03:42:16.251Z,1.30
2022-10-22T03:44:44.023Z,0.90
2022-10-22T03:47:11.416Z,1.13
2022-10-22T03:49:39.414Z,1.90
2022-10-22T03:52:08.084Z,1.50
2022-10-22T03:54:36.113Z,1.10
2022-10-22T03:57:03.880Z,1.10
2022-10-22T03:59:35.222Z,1.03
2022-10-22T04:02:02.707Z,0.80
2022-10-22T04:04:30.134Z,1.23
2022-10-22T04:06:57.549Z,1.40
2022-10-22T04:09:24.816Z,1.27
2022-10-22T04:11:52.054Z,1.20
2022-10-22T04:14:19.513Z,1.07
2022-10-22T04:16:46.859Z,0.90
2022-10-22T04:19:14.759Z,0.90
2022-10-22T04:21:42.609Z,1.20
2022-10-22T04:24:09.886Z,1.27
2022-10-22T04:26:37.323Z,1.20
2022-10-22T04:29:04.594Z,0.90
2022-10-22T04:31:31.945Z,1.00
2022-10-22T04:33:59.980Z,0.87
2022-10-22T04:36:27.590Z,0.80
2022-10-22T04:38:59.735Z,0.93
2022-10-22T04:41:28.574Z,1.00
2022-10-22T04:43:56.534Z,0.80
2022-10-22T04:46:24.449Z,0.80
2022-10-22T04:48:52.591Z,1.10
2022-10-22T04:51:21.061Z,1.47
2022-10-22T04:53:48.608Z,1.00
2022-10-22T04:56:20.233Z,1.00
2022-10-22T04:58:49.187Z,0.90
2022-10-22T05:01:21.043Z,1.00
2022-10-22T05:03:49.636Z,1.10
2022-10-22T05:06:17.584Z,1.20
2022-10-22T05:08:45.041Z,1.10
2022-10-22T05:11:20.120Z,0.93
2022-10-22T05:13:47.668Z,0.93
2022-10-22T05:16:15.111Z,0.90
2022-10-22T05:18:44.009Z,0.97
2022-10-22T05:21:12.647Z,1.17
2022-10-22T05:23:40.329Z,1.17
2022-10-22T05:26:08.334Z,1.60
2022-10-22T05:28:35.916Z,1.60
2022-10-22T05:31:03.923Z,1.37
2022-10-22T05:33:31.893Z,1.57
2022-10-22T05:35:59.117Z,1.67
2022-10-22T05:38:26.879Z,2.40
2022-10-22T05:41:01.659Z,2.57
2022-10-22T05:43:29.047Z,2.30
2022-10-22T05:45:56.629Z,2.93
2022-10-22T05:48:24.202Z,3.00
2022-10-22T05:50:51.506Z,3.20
2022-10-22T05:53:19.062Z,3.80
2022-10-22T05:55:46.465Z,3.30
2022-10-22T05:58:14.427Z,3.20
2022-10-22T06:00:41.704Z,3.43
2022-10-22T06:03:08.963Z,3.70
2022-10-22T06:05:37.336Z,3.57
2022-10-22T06:08:04.965Z,3.87
2022-10-22T06:10:32.439Z,3.73
2022-10-22T06:13:01.534Z,3.50
2022-10-22T06:15:29.011Z,3.50
2022-10-22T06:17:56.424Z,3.27
2022-10-22T06:20:23.683Z,3.13
2022-10-22T06:22:51.084Z,3.33
2022-10-22T06:25:18.574Z,3.07
2022-10-22T06:27:51.814Z,3.23
2022-10-22T06:30:19.088Z,3.00
2022-10-22T06:32:46.442Z,3.10
2022-10-22T06:35:13.739Z,2.97
2022-10-22T06:37:41.179Z,2.53
2022-10-22T06:40:09.051Z,2.30
2022-10-22T06:42:36.410Z,1.87
2022-10-22T06:45:03.903Z,1.93
2022-10-22T06:47:33.391Z,1.90
2022-10-22T06:50:00.631Z,1.70
2022-10-22T06:52:27.868Z,1.83
2022-10-22T06:54:55.105Z,1.60
2022-10-22T06:57:22.359Z,1.60
2022-10-22T06:59:49.771Z,1.60
2022-10-22T07:02:17.043Z,1.50
2022-10-22T07:04:44.395Z,1.40
2022-10-22T07:07:11.703Z,1.40
2022-10-22T07:09:39.449Z,1.33
2022-10-22T07:12:06.831Z,1.30
2022-10-22T07:14:34.181Z,1.30
2022-10-22T07:17:02.422Z,1.50
2022-10-22T07:19:31.618Z,1.20
2022-10-22T07:21:58.922Z,1.47
2022-10-22T07:24:26.235Z,1.40
2022-10-22T07:26:53.736Z,1.50
2022-10-22T07:29:20.966Z,1.50
2022-10-22T07:31:48.505Z,1.90
2022-10-22T07:34:15.928Z,1.67
2022-10-22T07:36:43.317Z,2.65
2022-10-22T07:39:10.625Z,2.45
2022-10-22T07:41:38.205Z,3.05
2022-10-22T07:44:05.543Z,2.93
2022-10-22T07:46:32.881Z,3.10
2022-10-22T07:49:00.134Z,3.47
2022-10-22T07:51:27.654Z,3.40
2022-10-22T07:53:55.267Z,3.85
2022-10-22T07:56:22.726Z,3.92
2022-10-22T07:58:50.076Z,3.90
2022-10-22T08:01:17.575Z,3.85
2022-10-22T08:03:45.715Z,3.45
2022-10-22T08:06:22.805Z,3.47
2022-10-22T08:08:50.378Z,3.70
2022-10-22T08:11:17.662Z,3.88
2022-10-22T08:13:45.861Z,3.95
2022-10-22T08:16:13.782Z,3.22
2022-10-22T08:18:41.037Z,3.67
2022-10-22T08:21:08.350Z,3.70
2022-10-22T08:23:35.712Z,3.92
2022-10-22T08:26:03.134Z,3.55
2022-10-22T08:28:32.848Z,4.00
2022-10-22T08:31:00.201Z,3.17
2022-10-22T08:33:27.694Z,3.75
2022-10-22T08:35:55.147Z,3.50
2022-10-22T08:38:22.528Z,3.15
2022-10-22T08:40:52.361Z,3.25
2022-10-22T08:43:35.773Z,3.60
2022-10-22T08:46:23.296Z,2.90
2022-10-22T08:48:53.643Z,3.05
2022-10-22T08:51:25.559Z,2.80
2022-10-22T08:54:11.552Z,2.92
2022-10-22T08:56:39.569Z,2.95
2022-10-22T08:59:11.065Z,3.45
2022-10-22T09:01:47.473Z,2.95
2022-10-22T09:04:25.260Z,3.10
2022-10-22T09:06:54.481Z,2.58
2022-10-22T09:09:22.382Z,2.97
2022-10-22T09:11:51.464Z,2.65
2022-10-22T09:14:20.483Z,2.33
2022-10-22T09:16:51.063Z,2.55
2022-10-22T09:19:18.239Z,2.38
2022-10-22T09:22:01.599Z,2.53
2022-10-22T09:24:35.257Z,2.30
2022-10-22T09:27:03.097Z,2.58
2022-10-22T09:29:33.497Z,2.72
2022-10-22T09:32:01.311Z,2.92
2022-10-22T09:34:29.478Z,2.60
2022-10-22T09:37:03.295Z,2.47
2022-10-22T09:39:35.118Z,2.45
2022-10-22T09:42:02.316Z,2.75
2022-10-22T09:44:29.779Z,2.22
2022-10-22T09:46:57.348Z,2.30
2022-10-22T09:49:25.002Z,2.50
2022-10-22T09:51:59.294Z,2.63
2022-10-22T09:54:32.762Z,2.97
2022-10-22T09:57:06.225Z,3.00
2022-10-22T09:59:34.476Z,3.05
2022-10-22T10:02:20.417Z,2.80
2022-10-22T10:05:02.949Z,2.63
2022-10-22T10:07:34.332Z,2.55
2022-10-22T10:10:01.972Z,2.97
2022-10-22T10:12:54.727Z,2.20
2022-10-22T10:15:21.920Z,2.35
2022-10-22T10:17:52.166Z,2.20
2022-10-22T10:20:41.117Z,2.55
2022-10-22T10:23:25.345Z,2.00
2022-10-22T10:25:58.110Z,2.35
2022-10-22T10:28:25.293Z,1.95
2022-10-22T10:31:01.540Z,1.85
2022-10-22T10:33:34.161Z,1.80
2022-10-22T10:36:12.976Z,2.00
2022-10-22T10:38:45.410Z,2.00
2022-10-22T10:41:15.764Z,1.88
2022-10-22T10:43:46.111Z,5.65
2022-10-22T10:46:30.285Z,3.75
2022-10-22T10:48:59.563Z,2.08
2022-10-22T10:51:45.441Z,1.58
2022-10-22T10:54:12.731Z,1.80
2022-10-22T10:56:42.111Z,1.40
2022-10-22T10:59:09.310Z,1.60
2022-10-22T11:01:36.660Z,1.30
2022-10-22T11:04:15.129Z,1.23
2022-10-22T11:06:46.031Z,1.48
2022-10-22T11:09:26.740Z,1.35
2022-10-22T11:12:05.272Z,1.50
2022-10-22T11:14:50.879Z,1.40
2022-10-22T11:17:19.107Z,1.40
2022-10-22T11:19:54.622Z,1.40
2022-10-22T11:22:27.213Z,1.13
2022-10-22T11:25:00.379Z,1.40
2022-10-22T11:27:47.799Z,1.40
2022-10-22T11:30:17.188Z,1.60
2022-10-22T11:32:48.147Z,1.00
2022-10-22T11:35:17.533Z,1.35
2022-10-22T11:37:46.473Z,1.42
2022-10-22T11:40:16.986Z,1.30
2022-10-22T11:42:50.682Z,1.40
2022-10-22T11:45:17.998Z,1.48
2022-10-22T11:47:58.955Z,1.45
2022-10-22T11:50:44.671Z,1.50
2022-10-22T11:53:15.122Z,1.30
2022-10-22T11:55:46.038Z,1.33
2022-10-22T11:58:29.244Z,1.15
2022-10-22T12:00:58.411Z,1.50
2022-10-22T12:03:31.896Z,1.45
2022-10-22T12:06:12.067Z,1.50
2022-10-22T12:08:44.827Z,1.30
2022-10-22T12:11:12.342Z,1.15
2022-10-22T12:14:01.454Z,1.42
2022-10-22T12:16:37.705Z,1.42
2022-10-22T12:19:38.049Z,1.23
2022-10-22T12:22:09.082Z,1.15
2022-10-22T12:24:37.839Z,1.67
2022-10-22T12:27:08.238Z,1.20
2022-10-22T12:29:35.951Z,1.08
2022-10-22T12:32:04.614Z,1.35
2022-10-22T12:34:31.912Z,0.98
2022-10-22T12:36:59.178Z,1.30
2022-10-22T12:39:27.536Z,1.08
2022-10-22T12:41:55.278Z,1.23
2022-10-22T12:44:22.683Z,1.17
2022-10-22T12:46:53.052Z,1.23
2022-10-22T12:49:26.016Z,1.10
2022-10-22T12:51:53.902Z,1.40
2022-10-22T12:54:26.671Z,1.17
2022-10-22T12:56:54.615Z,1.10
2022-10-22T12:59:25.226Z,1.00
2022-10-22T13:01:53.082Z,1.50
2022-10-22T13:04:22.543Z,1.00
2022-10-22T13:06:51.134Z,1.15
2022-10-22T13:09:27.645Z,1.05
2022-10-22T13:12:01.625Z,1.00
2022-10-22T13:14:29.981Z,1.58
2022-10-22T13:17:04.672Z,1.35
2022-10-22T13:19:55.199Z,1.15
2022-10-22T13:22:27.575Z,3.20
2022-10-22T13:27:24.571Z,2.08
2022-10-22T13:29:51.925Z,1.38
2022-10-22T13:32:37.539Z,1.20
2022-10-22T13:35:05.135Z,0.95
2022-10-22T13:37:34.251Z,1.10
2022-10-22T13:40:01.521Z,1.00
2022-10-22T13:42:28.878Z,1.10
2022-10-22T13:44:56.081Z,0.80
2022-10-22T13:47:29.670Z,1.00
2022-10-22T13:49:58.667Z,0.82
2022-10-22T13:52:32.486Z,1.00
2022-10-22T13:54:59.964Z,0.90
2022-10-22T13:57:27.225Z,0.98
2022-10-22T13:59:54.540Z,1.00
2022-10-22T14:02:24.780Z,0.80
2022-10-22T14:04:52.357Z,1.02
2022-10-22T14:07:19.767Z,1.50
2022-10-22T14:09:47.141Z,0.90
2022-10-22T14:12:16.211Z,2.35
2022-10-22T14:14:44.241Z,0.93
2022-10-22T14:17:16.903Z,0.93
2022-10-22T14:19:46.019Z,0.75
2022-10-22T14:22:18.265Z,0.90
2022-10-22T14:24:46.138Z,0.95
2022-10-22T14:27:14.313Z,0.80
2022-10-22T14:29:41.847Z,0.88
2022-10-22T14:32:16.844Z,0.95
2022-10-22T14:34:45.609Z,0.70
2022-10-22T14:37:20.405Z,1.23
2022-10-22T14:39:51.990Z,0.80
2022-10-22T14:42:20.172Z,0.80
2022-10-22T14:44:47.809Z,0.70
2022-10-22T14:47:15.501Z,0.70
2022-10-22T14:49:42.713Z,0.75
2022-10-22T14:52:12.885Z,0.90
2022-10-22T14:54:42.326Z,0.90
2022-10-22T14:57:11.846Z,0.82
2022-10-22T14:59:39.105Z,0.80
2022-10-22T15:02:06.380Z,0.68
2022-10-22T15:04:33.572Z,1.02
2022-10-22T15:07:00.844Z,0.93
2022-10-22T15:09:29.306Z,1.70
2022-10-22T15:11:56.547Z,0.90
2022-10-22T15:14:23.911Z,1.10
2022-10-22T15:16:51.333Z,0.90
2022-10-22T15:19:18.794Z,1.10
2022-10-22T15:21:46.091Z,0.98
2022-10-22T15:24:13.286Z,0.88
2022-10-22T15:26:40.672Z,0.80
2022-10-22T15:29:08.102Z,1.17
2022-10-22T15:31:49.163Z,1.08
2022-10-22T15:34:20.669Z,1.20
2022-10-22T15:36:48.141Z,1.33
2022-10-22T15:39:15.505Z,1.10
2022-10-22T15:41:42.730Z,1.17
2022-10-22T15:44:15.185Z,1.00
2022-10-22T15:46:42.629Z,1.45
2022-10-22T15:49:09.964Z,1.33
2022-10-22T15:51:40.427Z,1.30
2022-10-22T15:54:10.215Z,1.33
2022-10-22T15:56:37.602Z,1.33
2022-10-22T15:59:05.064Z,8.30
2022-10-22T16:01:33.524Z,2.45
2022-10-22T16:04:02.762Z,1.90
2022-10-22T16:06:40.750Z,1.77
2022-10-22T16:09:09.383Z,2.70
2022-10-22T16:11:37.023Z,2.67
2022-10-22T16:14:04.981Z,2.42
2022-10-22T16:16:33.150Z,2.60
2022-10-22T16:19:00.469Z,3.08
2022-10-22T16:21:28.263Z,2.95
2022-10-22T16:23:55.487Z,3.38
2022-10-22T16:26:23.099Z,5.20
2022-10-22T16:28:50.412Z,5.35
2022-10-22T16:31:19.767Z,4.85
2022-10-22T16:33:50.009Z,4.50
2022-10-22T16:36:18.915Z,6.40
2022-10-22T16:41:35.344Z,5.97
2022-10-22T16:44:07.835Z,6.25
2022-10-22T16:46:38.356Z,5.70
2022-10-22T16:49:06.299Z,5.40
2022-10-22T16:51:33.761Z,5.68
2022-10-22T16:54:00.893Z,6.57
2022-10-22T16:56:28.412Z,8.52
2022-10-22T16:58:56.943Z,8.75
2022-10-22T17:01:29.694Z,7.47
2022-10-22T17:03:59.380Z,7.45
2022-10-22T17:06:26.786Z,5.07
2022-10-22T17:08:54.313Z,4.75
2022-10-22T17:11:22.454Z,3.20
2022-10-22T17:13:52.779Z,3.42
2022-10-22T17:16:21.589Z,5.45
2022-10-22T17:18:48.956Z,4.25
2022-10-22T17:21:16.533Z,4.85
2022-10-22T17:23:43.883Z,5.30
2022-10-22T17:26:14.955Z,5.65
2022-10-22T17:28:42.136Z,4.53
2022-10-22T17:31:11.617Z,4.50
2022-10-22T17:33:38.766Z,5.15
2022-10-22T17:36:10.963Z,4.30
2022-10-22T17:38:38.886Z,4.20
2022-10-22T17:41:07.426Z,3.53
2022-10-22T17:43:38.466Z,2.67
2022-10-22T17:46:10.878Z,2.60
2022-10-22T17:48:38.100Z,2.35
2022-10-22T17:51:08.611Z,2.90
2022-10-22T17:53:36.132Z,1.63
2022-10-22T17:56:06.996Z,1.90
2022-10-22T17:58:34.101Z,2.10
2022-10-22T18:01:01.349Z,2.28
2022-10-22T18:03:28.488Z,1.63
2022-10-22T18:05:55.801Z,1.80
2022-10-22T18:08:26.188Z,2.13
2022-10-22T18:10:53.514Z,1.80
2022-10-22T18:13:20.962Z,1.80
2022-10-22T18:15:54.542Z,2.50
2022-10-22T18:18:21.680Z,2.00
2022-10-22T18:20:49.728Z,2.38
2022-10-22T18:23:16.954Z,2.50
2022-10-22T18:25:44.094Z,3.00
2022-10-22T18:28:14.787Z,2.83
2022-10-22T18:30:42.083Z,3.17
2022-10-22T18:33:11.114Z,3.70
2022-10-22T18:35:38.352Z,3.40
2022-10-22T18:38:05.484Z,2.72
2022-10-22T18:40:33.101Z,2.60
2022-10-22T18:43:00.306Z,2.30
2022-10-22T18:45:27.552Z,4.75
2022-10-22T18:47:54.735Z,2.50
2022-10-22T18:50:21.983Z,2.55
2022-10-22T18:52:49.140Z,2.30
2022-10-22T18:55:16.440Z,2.13
2022-10-22T18:57:43.699Z,1.90
2022-10-22T19:00:11.102Z,2.55
2022-10-22T19:02:38.562Z,2.72
2022-10-22T19:05:05.957Z,3.17
2022-10-22T19:07:33.936Z,2.63
2022-10-22T19:10:01.183Z,2.78
2022-10-22T19:12:28.301Z,2.20
2022-10-22T19:14:56.116Z,2.25
2022-10-22T19:17:23.582Z,3.00
2022-10-22T19:19:50.812Z,3.10
2022-10-22T19:22:17.903Z,3.40
2022-10-22T19:24:47.126Z,4.05
2022-10-22T19:27:14.270Z,4.05
2022-10-22T19:29:41.409Z,5.90
2022-10-22T19:34:41.164Z,5.72
2022-10-22T19:37:08.485Z,6.10
2022-10-22T19:39:35.602Z,5.33
2022-10-22T19:42:04.203Z,4.40
2022-10-22T19:44:31.714Z,4.10
2022-10-22T19:46:58.856Z,3.50
2022-10-22T19:49:26.013Z,4.10
2022-10-22T19:51:53.154Z,4.53
2022-10-22T19:54:20.541Z,3.83
2022-10-22T19:56:47.924Z,3.33
2022-10-22T19:59:16.048Z,3.38
2022-10-22T20:01:43.474Z,3.50
2022-10-22T20:04:14.531Z,4.10
2022-10-22T20:06:41.685Z,4.55
2022-10-22T20:09:10.953Z,3.92
2022-10-22T20:11:38.489Z,3.20
2022-10-22T20:14:05.730Z,3.05
2022-10-22T20:16:32.875Z,2.93
2022-10-22T20:19:01.728Z,4.28
2022-10-22T20:21:28.972Z,10.30
2022-10-22T20:23:57.394Z,6.32
2022-10-22T20:26:27.813Z,4.37
2022-10-22T20:28:58.196Z,4.90
2022-10-22T20:31:27.801Z,5.23
2022-10-22T20:33:56.837Z,5.28
2022-10-22T20:36:24.368Z,8.87
2022-10-22T20:38:53.435Z,8.07
2022-10-22T20:41:22.022Z,4.68
2022-10-22T20:43:50.345Z,3.50
2022-10-22T20:46:23.013Z,5.10
2022-10-22T20:48:55.180Z,4.60
2022-10-22T20:51:22.658Z,4.63
2022-10-22T20:53:50.480Z,4.87
2022-10-22T20:56:18.672Z,4.50
2022-10-22T20:58:49.019Z,4.87
2022-10-22T21:01:21.506Z,4.40
2022-10-22T21:03:52.989Z,4.70
2022-10-22T21:06:22.931Z,8.03
2022-10-22T21:08:50.678Z,9.70
2022-10-22T21:11:18.089Z,9.27
2022-10-22T21:13:45.293Z,5.90
2022-10-22T21:16:13.536Z,4.90
2022-10-22T21:18:40.734Z,4.63
2022-10-22T21:21:08.368Z,5.20
2022-10-22T21:23:36.276Z,4.15
2022-10-22T21:26:03.743Z,3.50
2022-10-22T21:28:32.910Z,3.73
2022-10-22T21:31:00.072Z,3.50
2022-10-22T21:33:27.213Z,3.87
2022-10-22T21:35:55.626Z,3.77
2022-10-22T21:38:23.476Z,3.50
2022-10-22T21:40:51.244Z,3.00
2022-10-22T21:43:18.784Z,2.72
2022-10-22T21:45:46.028Z,2.50
2022-10-22T21:48:13.928Z,2.70
2022-10-22T21:50:41.511Z,2.70
2022-10-22T21:53:08.868Z,2.70
2022-10-22T21:55:39.876Z,3.03
2022-10-22T21:58:07.491Z,2.60
2022-10-22T22:00:34.630Z,3.13
2022-10-22T22:03:01.794Z,2.50
2022-10-22T22:05:29.604Z,2.60
2022-10-22T22:07:56.753Z,2.67
2022-10-22T22:10:26.589Z,2.20
2022-10-22T22:12:53.768Z,2.90
2022-10-22T22:15:21.195Z,2.50
2022-10-22T22:17:48.404Z,3.40
2022-10-22T22:20:15.676Z,3.20
2022-10-22T22:22:43.120Z,3.90
2022-10-22T22:25:10.646Z,5.20
2022-10-22T22:27:37.792Z,4.77
2022-10-22T22:30:05.098Z,5.27
2022-10-22T22:32:32.277Z,4.60
2022-10-22T22:34:59.432Z,3.97
2022-10-22T22:37:27.414Z,4.13
2022-10-22T22:39:54.781Z,3.80
2022-10-22T22:42:21.923Z,4.13
2022-10-22T22:44:49.043Z,3.47
2022-10-22T22:47:16.316Z,2.70
2022-10-22T22:49:43.836Z,2.93
2022-10-22T22:52:11.262Z,2.70
2022-10-22T22:54:38.486Z,3.40
2022-10-22T22:57:05.795Z,2.80
2022-10-22T22:59:33.100Z,3.53
2022-10-22T23:02:00.598Z,3.73
2022-10-22T23:04:30.159Z,3.90
2022-10-22T23:06:57.514Z,3.33
2022-10-22T23:09:25.168Z,3.40
2022-10-22T23:11:52.542Z,3.60
2022-10-22T23:14:20.808Z,3.33
2022-10-22T23:16:49.780Z,3.80
2022-10-22T23:19:18.077Z,4.53
2022-10-22T23:21:46.492Z,4.20
2022-10-22T23:24:15.062Z,4.30
2022-10-22T23:26:44.213Z,3.83
2022-10-22T23:29:13.043Z,4.37
2022-10-22T23:31:42.413Z,4.47
2022-10-22T23:34:10.895Z,4.07
2022-10-22T23:36:39.044Z,4.50
2022-10-22T23:39:10.702Z,4.13
2022-10-22T23:41:38.130Z,3.40
2022-10-22T23:44:05.843Z,3.30
2022-10-22T23:46:33.744Z,4.07
2022-10-22T23:49:01.922Z,3.90
2022-10-22T23:51:29.147Z,3.17
2022-10-22T23:53:57.713Z,3.13
2022-10-22T23:56:25.260Z,3.50
2022-10-22T23:58:53.023Z,2.87
